sensor_id;sensor_type;location;lat;lon;timestamp;P1;durP1;ratioP1;P2;durP2;ratioP2
37365;SDS011;23239;51.504;7.456;2024-03-23T00:53:00;23.3;;;5.6;;
37365;SDS011;23239;51.504;7.456;2024-03-23T00:54:00;23.3;;;5.6;;
37365;SDS011;23239;51.504;7.456;2024-03-23T00:55:00;23.3;;;5.6;;
37365;SDS011;23239;51.504;7.456;2024-03-23T00:56:00;23.3;;;5.6;;
37365;SDS011;23239;51.504;7.456;2024-03-23T00:57:00;23.3;;;5.6;;
37365;SDS011;23239;51.504;7.456;2024-03-23T00:58:00;21.5;;;5.3;;
37365;SDS011;23239;51.504;7.456;2024-03-23T00:59:00;21.5;;;5.3;;
37365;SDS011;23239;51.504;7.456;2024-03-23T01:00:00;21.5;;;5.3;;
37365;SDS011;23239;51.504;7.456;2024-03-23T01:01:00;21.5;;;5.3;;
37365;SDS011;23239;51.504;7.456;2024-03-23T01:02:00;21.5;;;5.3;;
37365;SDS011;23239;51.504;7.456;2024-03-23T01:03:00;22.0;;;5.4;;
37365;SDS011;23239;51.504;7.456;2024-03-23T01:04:00;22.0;;;5.4;;
37365;SDS011;23239;51.504;7.456;2024-03-23T01:05:00;22.0;;;5.4;;
37365;SDS011;23239;51.504;7.456;2024-03-23T01:06:00;22.0;;;5.4;;
37365;SDS011;23239;51.504;7.456;2024-03-23T01:07:00;22.0;;;5.4;;
37365;SDS011;23239;51.504;7.456;2024-03-23T01:08:00;17.8;;;5.6;;
37365;SDS011;23239;51.504;7.456;2024-03-23T01:09:00;17.8;;;5.6;;
37365;SDS011;23239;51.504;7.456;2024-03-23T01:10:00;17.8;;;5.6;;
37365;SDS011;23239;51.504;7.456;2024-03-23T01:11:00;17.8;;;5.6;;
37365;SDS011;23239;51.504;7.456;2024-03-23T01:12:00;17.8;;;5.6;;
37365;SDS011;23239;51.504;7.456;2024-03-23T01:13:00;16.5;;;4.8;;
37365;SDS011;23239;51.504;7.456;2024-03-23T01:14:00;16.5;;;4.8;;
37365;SDS011;23239;51.504;7.456;2024-03-23T01:15:00;16.5;;;4.8;;
37365;SDS011;23239;51.504;7.456;2024-03-23T01:16:00;16.5;;;4.8;;
37365;SDS011;23239;51.504;7.456;2024-03-23T01:17:00;16.5;;;4.8;;
37365;SDS011;23239;51.504;7.456;2024-03-23T01:18:00;17.9;;;5.0;;
37365;SDS011;23239;51.504;7.456;2024-03-23T01:19:00;17.9;;;5.0;;
37365;SDS011;23239;51.504;7.456;2024-03-23T01:20:00;17.9;;;5.0;;
37365;SDS011;23239;51.504;7.456;2024-03-23T01:21:00;17.9;;;5.0;;
37365;SDS011;23239;51.504;7.456;2024-03-23T01:22:00;17.9;;;5.0;;
37365;SDS011;23239;51.504;7.456;2024-03-23T01:23:00;18.0;;;5.0;;
37365;SDS011;23239;51.504;7.456;2024-03-23T01:24:00;18.0;;;5.0;;
37365;SDS011;23239;51.504;7.456;2024-03-23T01:25:00;18.0;;;5.0;;
37365;SDS011;23239;51.504;7.456;2024-03-23T01:26:00;18.0;;;5.0;;
37365;SDS011;23239;51.504;7.456;2024-03-23T01:27:00;18.0;;;5.0;;
37365;SDS011;23239;51.504;7.456;2024-03-23T01:28:00;19.3;;;4.3;;
37365;SDS011;23239;51.504;7.456;2024-03-23T01:29:00;19.3;;;4.3;;
37365;SDS011;23239;51.504;7.456;2024-03-23T01:30:00;19.3;;;4.3;;
37365;SDS011;23239;51.504;7.456;2024-03-23T01:31:00;19.3;;;4.3;;
37365;SDS011;23239;51.504;7.456;2024-03-23T01:32:00;19.3;;;4.3;;
37365;SDS011;23239;51.504;7.456;2024-03-23T01:33:00;20.4;;;4.8;;
37365;SDS011;23239;51.504;7.456;2024-03-23T01:34:00;20.4;;;4.8;;
37365;SDS011;23239;51.504;7.456;2024-03-23T01:35:00;20.4;;;4.8;;
37365;SDS011;23239;51.504;7.456;2024-03-23T01:36:00;20.4;;;4.8;;
37365;SDS011;23239;51.504;7.456;2024-03-23T01:37:00;20.4;;;4.8;;
37365;SDS011;23239;51.504;7.456;2024-03-23T01:38:00;16.0;;;3.7;;
37365;SDS011;23239;51.504;7.456;2024-03-23T01:39:00;16.0;;;3.7;;
37365;SDS011;23239;51.504;7.456;2024-03-23T01:40:00;16.0;;;3.7;;
37365;SDS011;23239;51.504;7.456;2024-03-23T01:41:00;16.0;;;3.7;;
37365;SDS011;23239;51.504;7.456;2024-03-23T01:42:00;16.0;;;3.7;;
37365;SDS011;23239;51.504;7.456;2024-03-23T01:43:03;16.8;;;4.5;;
37365;SDS011;23239;51.504;7.456;2024-03-23T01:44:00;16.8;;;4.5;;
37365;SDS011;23239;51.504;7.456;2024-03-23T01:45:00;16.8;;;4.5;;
37365;SDS011;23239;51.504;7.456;2024-03-23T01:46:00;16.8;;;4.5;;
37365;SDS011;23239;51.504;7.456;2024-03-23T01:47:00;16.8;;;4.5;;
37365;SDS011;23239;51.504;7.456;2024-03-23T01:48:00;14.6;;;4.0;;
37365;SDS011;23239;51.504;7.456;2024-03-23T01:49:00;14.6;;;4.0;;
37365;SDS011;23239;51.504;7.456;2024-03-23T01:50:00;14.6;;;4.0;;
37365;SDS011;23239;51.504;7.456;2024-03-23T01:51:00;14.6;;;4.0;;
37365;SDS011;23239;51.504;7.456;2024-03-23T01:52:00;14.6;;;4.0;;
37365;SDS011;23239;51.504;7.456;2024-03-23T01:53:00;15.2;;;3.6;;
37365;SDS011;23239;51.504;7.456;2024-03-23T01:54:00;15.2;;;3.6;;
37365;SDS011;23239;51.504;7.456;2024-03-23T01:55:00;15.2;;;3.6;;
37365;SDS011;23239;51.504;7.456;2024-03-23T01:56:00;15.2;;;3.6;;
37365;SDS011;23239;51.504;7.456;2024-03-23T01:57:00;15.2;;;3.6;;
37365;SDS011;23239;51.504;7.456;2024-03-23T01:58:00;12.4;;;3.4;;
37365;SDS011;23239;51.504;7.456;2024-03-23T01:59:00;12.4;;;3.4;;
37365;SDS011;23239;51.504;7.456;2024-03-23T02:00:00;12.4;;;3.4;;
37365;SDS011;23239;51.504;7.456;2024-03-23T02:01:00;12.4;;;3.4;;
37365;SDS011;23239;51.504;7.456;2024-03-23T02:02:00;12.4;;;3.4;;
37365;SDS011;23239;51.504;7.456;2024-03-23T02:03:00;14.2;;;3.3;;
37365;SDS011;23239;51.504;7.456;2024-03-23T02:04:00;14.2;;;3.3;;
37365;SDS011;23239;51.504;7.456;2024-03-23T02:05:00;14.2;;;3.3;;
37365;SDS011;23239;51.504;7.456;2024-03-23T02:06:00;14.2;;;3.3;;
37365;SDS011;23239;51.504;7.456;2024-03-23T02:07:00;14.2;;;3.3;;
37365;SDS011;23239;51.504;7.456;2024-03-23T02:08:00;8.5;;;2.6;;
37365;SDS011;23239;51.504;7.456;2024-03-23T02:09:00;8.5;;;2.6;;
37365;SDS011;23239;51.504;7.456;2024-03-23T02:10:00;8.5;;;2.6;;
37365;SDS011;23239;51.504;7.456;2024-03-23T02:11:00;8.5;;;2.6;;
37365;SDS011;23239;51.504;7.456;2024-03-23T02:12:01;8.5;;;2.6;;
37365;SDS011;23239;51.504;7.456;2024-03-23T02:13:00;8.7;;;2.4;;
37365;SDS011;23239;51.504;7.456;2024-03-23T02:14:00;8.7;;;2.4;;
37365;SDS011;23239;51.504;7.456;2024-03-23T02:15:00;8.7;;;2.4;;
37365;SDS011;23239;51.504;7.456;2024-03-23T02:16:00;8.7;;;2.4;;
37365;SDS011;23239;51.504;7.456;2024-03-23T02:17:00;8.7;;;2.4;;
37365;SDS011;23239;51.504;7.456;2024-03-23T02:18:00;8.4;;;2.4;;
37365;SDS011;23239;51.504;7.456;2024-03-23T02:19:00;8.4;;;2.4;;
37365;SDS011;23239;51.504;7.456;2024-03-23T02:20:00;8.4;;;2.4;;
37365;SDS011;23239;51.504;7.456;2024-03-23T02:21:00;8.4;;;2.4;;
37365;SDS011;23239;51.504;7.456;2024-03-23T02:22:00;8.4;;;2.4;;
37365;SDS011;23239;51.504;7.456;2024-03-23T02:23:00;10.0;;;2.5;;
37365;SDS011;23239;51.504;7.456;2024-03-23T02:24:00;10.0;;;2.5;;
37365;SDS011;23239;51.504;7.456;2024-03-23T02:25:00;10.0;;;2.5;;
37365;SDS011;23239;51.504;7.456;2024-03-23T02:26:00;10.0;;;2.5;;
37365;SDS011;23239;51.504;7.456;2024-03-23T02:27:00;10.0;;;2.5;;
37365;SDS011;23239;51.504;7.456;2024-03-23T02:28:00;9.6;;;2.8;;
37365;SDS011;23239;51.504;7.456;2024-03-23T02:29:00;9.6;;;2.8;;
37365;SDS011;23239;51.504;7.456;2024-03-23T02:30:00;9.6;;;2.8;;
37365;SDS011;23239;51.504;7.456;2024-03-23T02:31:00;9.6;;;2.8;;
37365;SDS011;23239;51.504;7.456;2024-03-23T02:32:00;9.6;;;2.8;;
37365;SDS011;23239;51.504;7.456;2024-03-23T02:33:00;9.7;;;2.7;;
37365;SDS011;23239;51.504;7.456;2024-03-23T02:34:00;9.7;;;2.7;;
37365;SDS011;23239;51.504;7.456;2024-03-23T02:35:00;9.7;;;2.7;;
37365;SDS011;23239;51.504;7.456;2024-03-23T02:36:00;9.7;;;2.7;;
37365;SDS011;23239;51.504;7.456;2024-03-23T02:37:00;9.7;;;2.7;;
37365;SDS011;23239;51.504;7.456;2024-03-23T02:38:00;10.8;;;3.1;;
37365;SDS011;23239;51.504;7.456;2024-03-23T02:39:00;10.8;;;3.1;;
37365;SDS011;23239;51.504;7.456;2024-03-23T02:40:00;10.8;;;3.1;;
37365;SDS011;23239;51.504;7.456;2024-03-23T02:41:02;10.8;;;3.1;;
37365;SDS011;23239;51.504;7.456;2024-03-23T02:42:00;10.8;;;3.1;;
37365;SDS011;23239;51.504;7.456;2024-03-23T02:43:00;10.1;;;2.9;;
37365;SDS011;23239;51.504;7.456;2024-03-23T02:44:00;10.1;;;2.9;;
37365;SDS011;23239;51.504;7.456;2024-03-23T02:45:00;10.1;;;2.9;;
37365;SDS011;23239;51.504;7.456;2024-03-23T02:46:00;10.1;;;2.9;;
37365;SDS011;23239;51.504;7.456;2024-03-23T02:47:00;10.1;;;2.9;;
37365;SDS011;23239;51.504;7.456;2024-03-23T02:48:00;12.7;;;3.2;;
37365;SDS011;23239;51.504;7.456;2024-03-23T02:49:00;12.7;;;3.2;;
37365;SDS011;23239;51.504;7.456;2024-03-23T02:50:00;12.7;;;3.2;;
37365;SDS011;23239;51.504;7.456;2024-03-23T02:51:00;12.7;;;3.2;;
37365;SDS011;23239;51.504;7.456;2024-03-23T02:52:00;12.7;;;3.2;;
37365;SDS011;23239;51.504;7.456;2024-03-23T02:53:00;8.9;;;2.6;;
37365;SDS011;23239;51.504;7.456;2024-03-23T02:54:00;8.9;;;2.6;;
37365;SDS011;23239;51.504;7.456;2024-03-23T02:55:00;8.9;;;2.6;;
37365;SDS011;23239;51.504;7.456;2024-03-23T02:56:00;8.9;;;2.6;;
37365;SDS011;23239;51.504;7.456;2024-03-23T02:57:00;8.9;;;2.6;;
37365;SDS011;23239;51.504;7.456;2024-03-23T02:58:00;7.9;;;2.1;;
37365;SDS011;23239;51.504;7.456;2024-03-23T02:59:00;7.9;;;2.1;;
37365;SDS011;23239;51.504;7.456;2024-03-23T03:00:00;7.9;;;2.1;;
37365;SDS011;23239;51.504;7.456;2024-03-23T03:01:00;7.9;;;2.1;;
37365;SDS011;23239;51.504;7.456;2024-03-23T03:02:00;7.9;;;2.1;;
37365;SDS011;23239;51.504;7.456;2024-03-23T03:03:00;9.2;;;2.5;;
37365;SDS011;23239;51.504;7.456;2024-03-23T03:04:00;9.2;;;2.5;;
37365;SDS011;23239;51.504;7.456;2024-03-23T03:05:00;9.2;;;2.5;;
37365;SDS011;23239;51.504;7.456;2024-03-23T03:06:00;9.2;;;2.5;;
37365;SDS011;23239;51.504;7.456;2024-03-23T03:07:00;9.2;;;2.5;;
37365;SDS011;23239;51.504;7.456;2024-03-23T03:08:00;9.3;;;2.0;;
37365;SDS011;23239;51.504;7.456;2024-03-23T03:09:00;9.3;;;2.0;;
37365;SDS011;23239;51.504;7.456;2024-03-23T03:10:00;9.3;;;2.0;;
37365;SDS011;23239;51.504;7.456;2024-03-23T03:11:00;9.3;;;2.0;;
37365;SDS011;23239;51.504;7.456;2024-03-23T03:12:00;9.3;;;2.0;;
37365;SDS011;23239;51.504;7.456;2024-03-23T03:13:00;9.3;;;2.4;;
37365;SDS011;23239;51.504;7.456;2024-03-23T03:14:00;9.3;;;2.4;;
37365;SDS011;23239;51.504;7.456;2024-03-23T03:15:00;9.3;;;2.4;;
37365;SDS011;23239;51.504;7.456;2024-03-23T03:16:00;9.3;;;2.4;;
37365;SDS011;23239;51.504;7.456;2024-03-23T03:17:00;9.3;;;2.4;;
37365;SDS011;23239;51.504;7.456;2024-03-23T03:18:00;11.1;;;2.8;;
37365;SDS011;23239;51.504;7.456;2024-03-23T03:19:00;11.1;;;2.8;;
37365;SDS011;23239;51.504;7.456;2024-03-23T03:20:00;11.1;;;2.8;;
37365;SDS011;23239;51.504;7.456;2024-03-23T03:21:00;11.1;;;2.8;;
37365;SDS011;23239;51.504;7.456;2024-03-23T03:22:00;11.1;;;2.8;;
37365;SDS011;23239;51.504;7.456;2024-03-23T03:23:00;8.9;;;2.4;;
37365;SDS011;23239;51.504;7.456;2024-03-23T03:24:00;8.9;;;2.4;;
37365;SDS011;23239;51.504;7.456;2024-03-23T03:25:00;8.9;;;2.4;;
37365;SDS011;23239;51.504;7.456;2024-03-23T03:26:00;8.9;;;2.4;;
37365;SDS011;23239;51.504;7.456;2024-03-23T03:27:00;8.9;;;2.4;;
37365;SDS011;23239;51.504;7.456;2024-03-23T03:28:00;7.2;;;2.3;;
37365;SDS011;23239;51.504;7.456;2024-03-23T03:29:00;7.2;;;2.3;;
37365;SDS011;23239;51.504;7.456;2024-03-23T03:30:00;7.2;;;2.3;;
37365;SDS011;23239;51.504;7.456;2024-03-23T03:31:00;7.2;;;2.3;;
37365;SDS011;23239;51.504;7.456;2024-03-23T03:32:00;7.2;;;2.3;;
37365;SDS011;23239;51.504;7.456;2024-03-23T03:33:00;10.5;;;2.5;;
37365;SDS011;23239;51.504;7.456;2024-03-23T03:34:00;10.5;;;2.5;;
37365;SDS011;23239;51.504;7.456;2024-03-23T03:35:00;10.5;;;2.5;;
37365;SDS011;23239;51.504;7.456;2024-03-23T03:36:00;10.5;;;2.5;;
37365;SDS011;23239;51.504;7.456;2024-03-23T03:37:00;10.5;;;2.5;;
37365;SDS011;23239;51.504;7.456;2024-03-23T03:38:00;9.5;;;2.2;;
37365;SDS011;23239;51.504;7.456;2024-03-23T03:39:00;9.5;;;2.2;;
37365;SDS011;23239;51.504;7.456;2024-03-23T03:40:00;9.5;;;2.2;;
37365;SDS011;23239;51.504;7.456;2024-03-23T03:41:00;9.5;;;2.2;;
37365;SDS011;23239;51.504;7.456;2024-03-23T03:42:00;9.5;;;2.2;;
37365;SDS011;23239;51.504;7.456;2024-03-23T03:43:00;8.3;;;1.8;;
37365;SDS011;23239;51.504;7.456;2024-03-23T03:44:00;8.3;;;1.8;;
37365;SDS011;23239;51.504;7.456;2024-03-23T03:45:00;8.3;;;1.8;;
37365;SDS011;23239;51.504;7.456;2024-03-23T03:46:00;8.3;;;1.8;;
37365;SDS011;23239;51.504;7.456;2024-03-23T03:47:00;8.3;;;1.8;;
37365;SDS011;23239;51.504;7.456;2024-03-23T03:48:00;11.4;;;2.3;;
37365;SDS011;23239;51.504;7.456;2024-03-23T03:49:00;11.4;;;2.3;;
37365;SDS011;23239;51.504;7.456;2024-03-23T03:50:00;11.4;;;2.3;;
37365;SDS011;23239;51.504;7.456;2024-03-23T03:51:00;11.4;;;2.3;;
37365;SDS011;23239;51.504;7.456;2024-03-23T03:52:00;11.4;;;2.3;;
37365;SDS011;23239;51.504;7.456;2024-03-23T03:53:00;10.7;;;2.3;;
37365;SDS011;23239;51.504;7.456;2024-03-23T03:54:00;10.7;;;2.3;;
37365;SDS011;23239;51.504;7.456;2024-03-23T03:55:01;10.7;;;2.3;;
37365;SDS011;23239;51.504;7.456;2024-03-23T03:56:00;10.7;;;2.3;;
37365;SDS011;23239;51.504;7.456;2024-03-23T03:57:00;10.7;;;2.3;;
37365;SDS011;23239;51.504;7.456;2024-03-23T03:58:00;10.3;;;2.5;;
37365;SDS011;23239;51.504;7.456;2024-03-23T03:59:00;10.3;;;2.5;;
37365;SDS011;23239;51.504;7.456;2024-03-23T04:00:00;10.3;;;2.5;;
37365;SDS011;23239;51.504;7.456;2024-03-23T04:01:00;10.3;;;2.5;;
37365;SDS011;23239;51.504;7.456;2024-03-23T04:02:00;10.3;;;2.5;;
37365;SDS011;23239;51.504;7.456;2024-03-23T04:03:00;10.1;;;2.5;;
37365;SDS011;23239;51.504;7.456;2024-03-23T04:04:00;10.1;;;2.5;;
37365;SDS011;23239;51.504;7.456;2024-03-23T04:05:00;10.1;;;2.5;;
37365;SDS011;23239;51.504;7.456;2024-03-23T04:06:00;10.1;;;2.5;;
37365;SDS011;23239;51.504;7.456;2024-03-23T04:07:00;10.1;;;2.5;;
37365;SDS011;23239;51.504;7.456;2024-03-23T04:08:00;10.7;;;2.7;;
37365;SDS011;23239;51.504;7.456;2024-03-23T04:09:00;10.7;;;2.7;;
37365;SDS011;23239;51.504;7.456;2024-03-23T04:10:00;10.7;;;2.7;;
37365;SDS011;23239;51.504;7.456;2024-03-23T04:11:00;10.7;;;2.7;;
37365;SDS011;23239;51.504;7.456;2024-03-23T04:12:00;10.7;;;2.7;;
37365;SDS011;23239;51.504;7.456;2024-03-23T04:13:00;12.5;;;2.7;;
37365;SDS011;23239;51.504;7.456;2024-03-23T04:14:00;12.5;;;2.7;;
37365;SDS011;23239;51.504;7.456;2024-03-23T04:15:00;12.5;;;2.7;;
37365;SDS011;23239;51.504;7.456;2024-03-23T04:16:00;12.5;;;2.7;;
37365;SDS011;23239;51.504;7.456;2024-03-23T04:17:00;12.5;;;2.7;;
37365;SDS011;23239;51.504;7.456;2024-03-23T04:18:00;10.3;;;2.4;;
37365;SDS011;23239;51.504;7.456;2024-03-23T04:19:00;10.3;;;2.4;;
37365;SDS011;23239;51.504;7.456;2024-03-23T04:20:00;10.3;;;2.4;;
37365;SDS011;23239;51.504;7.456;2024-03-23T04:21:00;10.3;;;2.4;;
37365;SDS011;23239;51.504;7.456;2024-03-23T04:22:00;10.3;;;2.4;;
37365;SDS011;23239;51.504;7.456;2024-03-23T04:23:00;11.0;;;2.7;;
37365;SDS011;23239;51.504;7.456;2024-03-23T04:24:00;11.0;;;2.7;;
37365;SDS011;23239;51.504;7.456;2024-03-23T04:25:00;11.0;;;2.7;;
37365;SDS011;23239;51.504;7.456;2024-03-23T04:26:02;11.0;;;2.7;;
37365;SDS011;23239;51.504;7.456;2024-03-23T04:27:00;11.0;;;2.7;;
37365;SDS011;23239;51.504;7.456;2024-03-23T04:28:00;12.3;;;2.5;;
37365;SDS011;23239;51.504;7.456;2024-03-23T04:29:00;12.3;;;2.5;;
37365;SDS011;23239;51.504;7.456;2024-03-23T04:30:00;12.3;;;2.5;;
37365;SDS011;23239;51.504;7.456;2024-03-23T04:31:03;12.3;;;2.5;;
37365;SDS011;23239;51.504;7.456;2024-03-23T04:32:00;12.3;;;2.5;;
37365;SDS011;23239;51.504;7.456;2024-03-23T04:33:00;11.1;;;2.7;;
37365;SDS011;23239;51.504;7.456;2024-03-23T04:34:00;11.1;;;2.7;;
37365;SDS011;23239;51.504;7.456;2024-03-23T04:35:00;11.1;;;2.7;;
37365;SDS011;23239;51.504;7.456;2024-03-23T04:36:00;11.1;;;2.7;;
37365;SDS011;23239;51.504;7.456;2024-03-23T04:37:00;11.1;;;2.7;;
37365;SDS011;23239;51.504;7.456;2024-03-23T04:38:00;9.4;;;2.4;;
37365;SDS011;23239;51.504;7.456;2024-03-23T04:39:00;9.4;;;2.4;;
37365;SDS011;23239;51.504;7.456;2024-03-23T04:40:00;9.4;;;2.4;;
37365;SDS011;23239;51.504;7.456;2024-03-23T04:41:00;9.4;;;2.4;;
37365;SDS011;23239;51.504;7.456;2024-03-23T04:42:00;9.4;;;2.4;;
37365;SDS011;23239;51.504;7.456;2024-03-23T04:43:00;10.3;;;2.6;;
37365;SDS011;23239;51.504;7.456;2024-03-23T04:44:00;10.3;;;2.6;;
37365;SDS011;23239;51.504;7.456;2024-03-23T04:45:00;10.3;;;2.6;;
37365;SDS011;23239;51.504;7.456;2024-03-23T04:46:00;10.3;;;2.6;;
37365;SDS011;23239;51.504;7.456;2024-03-23T04:47:00;10.3;;;2.6;;
37365;SDS011;23239;51.504;7.456;2024-03-23T04:48:00;11.8;;;2.7;;
37365;SDS011;23239;51.504;7.456;2024-03-23T04:49:00;11.8;;;2.7;;
37365;SDS011;23239;51.504;7.456;2024-03-23T04:50:00;11.8;;;2.7;;
37365;SDS011;23239;51.504;7.456;2024-03-23T04:51:00;11.8;;;2.7;;
37365;SDS011;23239;51.504;7.456;2024-03-23T04:52:00;11.8;;;2.7;;
37365;SDS011;23239;51.504;7.456;2024-03-23T04:53:00;11.7;;;2.6;;
37365;SDS011;23239;51.504;7.456;2024-03-23T04:54:00;11.7;;;2.6;;
37365;SDS011;23239;51.504;7.456;2024-03-23T04:55:00;11.7;;;2.6;;
37365;SDS011;23239;51.504;7.456;2024-03-23T04:56:00;11.7;;;2.6;;
37365;SDS011;23239;51.504;7.456;2024-03-23T04:57:00;11.7;;;2.6;;
37365;SDS011;23239;51.504;7.456;2024-03-23T04:58:00;6.9;;;2.4;;
37365;SDS011;23239;51.504;7.456;2024-03-23T04:59:00;6.9;;;2.4;;
37365;SDS011;23239;51.504;7.456;2024-03-23T05:00:00;6.9;;;2.4;;
37365;SDS011;23239;51.504;7.456;2024-03-23T05:01:00;6.9;;;2.4;;
37365;SDS011;23239;51.504;7.456;2024-03-23T05:02:00;6.9;;;2.4;;
37365;SDS011;23239;51.504;7.456;2024-03-23T05:03:00;10.3;;;2.6;;
37365;SDS011;23239;51.504;7.456;2024-03-23T05:04:00;10.3;;;2.6;;
37365;SDS011;23239;51.504;7.456;2024-03-23T05:05:00;10.3;;;2.6;;
37365;SDS011;23239;51.504;7.456;2024-03-23T05:06:00;10.3;;;2.6;;
37365;SDS011;23239;51.504;7.456;2024-03-23T05:07:00;10.3;;;2.6;;
37365;SDS011;23239;51.504;7.456;2024-03-23T05:08:00;9.6;;;2.7;;
37365;SDS011;23239;51.504;7.456;2024-03-23T05:09:00;9.6;;;2.7;;
37365;SDS011;23239;51.504;7.456;2024-03-23T05:10:00;9.6;;;2.7;;
37365;SDS011;23239;51.504;7.456;2024-03-23T05:11:00;9.6;;;2.7;;
37365;SDS011;23239;51.504;7.456;2024-03-23T05:12:00;9.6;;;2.7;;
37365;SDS011;23239;51.504;7.456;2024-03-23T05:13:00;9.4;;;2.8;;
37365;SDS011;23239;51.504;7.456;2024-03-23T05:14:00;9.4;;;2.8;;
37365;SDS011;23239;51.504;7.456;2024-03-23T05:15:00;9.4;;;2.8;;
37365;SDS011;23239;51.504;7.456;2024-03-23T05:16:00;9.4;;;2.8;;
37365;SDS011;23239;51.504;7.456;2024-03-23T05:17:00;9.4;;;2.8;;
37365;SDS011;23239;51.504;7.456;2024-03-23T05:18:00;12.2;;;3.1;;
37365;SDS011;23239;51.504;7.456;2024-03-23T05:19:00;12.2;;;3.1;;
37365;SDS011;23239;51.504;7.456;2024-03-23T05:20:00;12.2;;;3.1;;
37365;SDS011;23239;51.504;7.456;2024-03-23T05:21:00;12.2;;;3.1;;
37365;SDS011;23239;51.504;7.456;2024-03-23T05:22:00;12.2;;;3.1;;
37365;SDS011;23239;51.504;7.456;2024-03-23T05:23:00;9.3;;;3.0;;
37365;SDS011;23239;51.504;7.456;2024-03-23T05:24:00;9.3;;;3.0;;
37365;SDS011;23239;51.504;7.456;2024-03-23T05:25:00;9.3;;;3.0;;
37365;SDS011;23239;51.504;7.456;2024-03-23T05:26:00;9.3;;;3.0;;
37365;SDS011;23239;51.504;7.456;2024-03-23T05:27:00;9.3;;;3.0;;
37365;SDS011;23239;51.504;7.456;2024-03-23T05:28:00;12.6;;;3.5;;
37365;SDS011;23239;51.504;7.456;2024-03-23T05:29:00;12.6;;;3.5;;
37365;SDS011;23239;51.504;7.456;2024-03-23T05:30:00;12.6;;;3.5;;
37365;SDS011;23239;51.504;7.456;2024-03-23T05:31:00;12.6;;;3.5;;
37365;SDS011;23239;51.504;7.456;2024-03-23T05:32:00;12.6;;;3.5;;
37365;SDS011;23239;51.504;7.456;2024-03-23T05:33:00;10.3;;;3.0;;
37365;SDS011;23239;51.504;7.456;2024-03-23T05:34:00;10.3;;;3.0;;
37365;SDS011;23239;51.504;7.456;2024-03-23T05:35:00;10.3;;;3.0;;
37365;SDS011;23239;51.504;7.456;2024-03-23T05:36:00;10.3;;;3.0;;
37365;SDS011;23239;51.504;7.456;2024-03-23T05:37:00;10.3;;;3.0;;
37365;SDS011;23239;51.504;7.456;2024-03-23T05:38:00;12.2;;;3.2;;
37365;SDS011;23239;51.504;7.456;2024-03-23T05:39:00;12.2;;;3.2;;
37365;SDS011;23239;51.504;7.456;2024-03-23T05:40:00;12.2;;;3.2;;
37365;SDS011;23239;51.504;7.456;2024-03-23T05:41:00;12.2;;;3.2;;
37365;SDS011;23239;51.504;7.456;2024-03-23T05:42:00;12.2;;;3.2;;
37365;SDS011;23239;51.504;7.456;2024-03-23T05:43:00;11.6;;;3.7;;
37365;SDS011;23239;51.504;7.456;2024-03-23T05:44:00;11.6;;;3.7;;
37365;SDS011;23239;51.504;7.456;2024-03-23T05:45:00;11.6;;;3.7;;
37365;SDS011;23239;51.504;7.456;2024-03-23T05:46:00;11.6;;;3.7;;
37365;SDS011;23239;51.504;7.456;2024-03-23T05:47:00;11.6;;;3.7;;
37365;SDS011;23239;51.504;7.456;2024-03-23T05:48:00;15.0;;;3.7;;
37365;SDS011;23239;51.504;7.456;2024-03-23T05:49:00;15.0;;;3.7;;
37365;SDS011;23239;51.504;7.456;2024-03-23T05:50:00;15.0;;;3.7;;
37365;SDS011;23239;51.504;7.456;2024-03-23T05:51:00;15.0;;;3.7;;
37365;SDS011;23239;51.504;7.456;2024-03-23T05:52:00;15.0;;;3.7;;
37365;SDS011;23239;51.504;7.456;2024-03-23T05:53:00;11.4;;;3.4;;
37365;SDS011;23239;51.504;7.456;2024-03-23T05:54:00;11.4;;;3.4;;
37365;SDS011;23239;51.504;7.456;2024-03-23T05:55:00;11.4;;;3.4;;
37365;SDS011;23239;51.504;7.456;2024-03-23T05:56:00;11.4;;;3.4;;
37365;SDS011;23239;51.504;7.456;2024-03-23T05:57:00;11.4;;;3.4;;
37365;SDS011;23239;51.504;7.456;2024-03-23T05:58:00;12.1;;;4.1;;
37365;SDS011;23239;51.504;7.456;2024-03-23T05:59:00;12.1;;;4.1;;
37365;SDS011;23239;51.504;7.456;2024-03-23T06:00:00;12.1;;;4.1;;
37365;SDS011;23239;51.504;7.456;2024-03-23T06:01:00;12.1;;;4.1;;
37365;SDS011;23239;51.504;7.456;2024-03-23T06:02:00;12.1;;;4.1;;
37365;SDS011;23239;51.504;7.456;2024-03-23T06:03:00;13.6;;;5.9;;
37365;SDS011;23239;51.504;7.456;2024-03-23T06:04:00;13.6;;;5.9;;
37365;SDS011;23239;51.504;7.456;2024-03-23T06:05:00;13.6;;;5.9;;
37365;SDS011;23239;51.504;7.456;2024-03-23T06:06:00;13.6;;;5.9;;
37365;SDS011;23239;51.504;7.456;2024-03-23T06:07:00;13.6;;;5.9;;
37365;SDS011;23239;51.504;7.456;2024-03-23T06:08:00;15.5;;;7.3;;
37365;SDS011;23239;51.504;7.456;2024-03-23T06:09:00;15.5;;;7.3;;
37365;SDS011;23239;51.504;7.456;2024-03-23T06:10:00;15.5;;;7.3;;
37365;SDS011;23239;51.504;7.456;2024-03-23T06:11:00;15.5;;;7.3;;
37365;SDS011;23239;51.504;7.456;2024-03-23T06:12:00;15.5;;;7.3;;
37365;SDS011;23239;51.504;7.456;2024-03-23T06:13:00;15.9;;;8.1;;
37365;SDS011;23239;51.504;7.456;2024-03-23T06:14:00;15.9;;;8.1;;
37365;SDS011;23239;51.504;7.456;2024-03-23T06:15:00;15.9;;;8.1;;
37365;SDS011;23239;51.504;7.456;2024-03-23T06:16:00;15.9;;;8.1;;
37365;SDS011;23239;51.504;7.456;2024-03-23T06:17:00;15.9;;;8.1;;
37365;SDS011;23239;51.504;7.456;2024-03-23T06:18:00;16.6;;;8.3;;
37365;SDS011;23239;51.504;7.456;2024-03-23T06:19:00;16.6;;;8.3;;
37365;SDS011;23239;51.504;7.456;2024-03-23T06:20:00;16.6;;;8.3;;
37365;SDS011;23239;51.504;7.456;2024-03-23T06:21:00;16.6;;;8.3;;
37365;SDS011;23239;51.504;7.456;2024-03-23T06:22:00;16.6;;;8.3;;
37365;SDS011;23239;51.504;7.456;2024-03-23T06:23:00;17.4;;;9.1;;
37365;SDS011;23239;51.504;7.456;2024-03-23T06:24:00;17.4;;;9.1;;
37365;SDS011;23239;51.504;7.456;2024-03-23T06:25:00;17.4;;;9.1;;
37365;SDS011;23239;51.504;7.456;2024-03-23T06:26:00;17.4;;;9.1;;
37365;SDS011;23239;51.504;7.456;2024-03-23T06:27:00;17.4;;;9.1;;
37365;SDS011;23239;51.504;7.456;2024-03-23T06:28:00;21.1;;;10.4;;
37365;SDS011;23239;51.504;7.456;2024-03-23T06:29:00;21.1;;;10.4;;
37365;SDS011;23239;51.504;7.456;2024-03-23T06:30:00;21.1;;;10.4;;
37365;SDS011;23239;51.504;7.456;2024-03-23T06:31:00;21.1;;;10.4;;
37365;SDS011;23239;51.504;7.456;2024-03-23T06:32:00;21.1;;;10.4;;
37365;SDS011;23239;51.504;7.456;2024-03-23T06:33:00;19.7;;;10.2;;
37365;SDS011;23239;51.504;7.456;2024-03-23T06:34:00;19.7;;;10.2;;
37365;SDS011;23239;51.504;7.456;2024-03-23T06:35:00;19.7;;;10.2;;
37365;SDS011;23239;51.504;7.456;2024-03-23T06:36:00;19.7;;;10.2;;
37365;SDS011;23239;51.504;7.456;2024-03-23T06:37:00;19.7;;;10.2;;
37365;SDS011;23239;51.504;7.456;2024-03-23T06:38:00;20.7;;;10.3;;
37365;SDS011;23239;51.504;7.456;2024-03-23T06:39:00;20.7;;;10.3;;
37365;SDS011;23239;51.504;7.456;2024-03-23T06:40:00;20.7;;;10.3;;
37365;SDS011;23239;51.504;7.456;2024-03-23T06:41:02;20.7;;;10.3;;
37365;SDS011;23239;51.504;7.456;2024-03-23T06:42:00;20.7;;;10.3;;
37365;SDS011;23239;51.504;7.456;2024-03-23T06:43:00;19.7;;;10.2;;
37365;SDS011;23239;51.504;7.456;2024-03-23T06:44:00;19.7;;;10.2;;
37365;SDS011;23239;51.504;7.456;2024-03-23T06:45:00;19.7;;;10.2;;
37365;SDS011;23239;51.504;7.456;2024-03-23T06:46:00;19.7;;;10.2;;
37365;SDS011;23239;51.504;7.456;2024-03-23T06:47:00;19.7;;;10.2;;
37365;SDS011;23239;51.504;7.456;2024-03-23T06:48:00;19.9;;;10.3;;
37365;SDS011;23239;51.504;7.456;2024-03-23T06:49:00;19.9;;;10.3;;
37365;SDS011;23239;51.504;7.456;2024-03-23T06:50:00;19.9;;;10.3;;
37365;SDS011;23239;51.504;7.456;2024-03-23T06:51:00;19.9;;;10.3;;
37365;SDS011;23239;51.504;7.456;2024-03-23T06:52:00;19.9;;;10.3;;
37365;SDS011;23239;51.504;7.456;2024-03-23T06:53:00;19.4;;;10.2;;
37365;SDS011;23239;51.504;7.456;2024-03-23T06:54:00;19.4;;;10.2;;
37365;SDS011;23239;51.504;7.456;2024-03-23T06:55:00;19.4;;;10.2;;
37365;SDS011;23239;51.504;7.456;2024-03-23T06:56:00;19.4;;;10.2;;
37365;SDS011;23239;51.504;7.456;2024-03-23T06:57:00;19.4;;;10.2;;
37365;SDS011;23239;51.504;7.456;2024-03-23T06:58:00;19.6;;;10.3;;
37365;SDS011;23239;51.504;7.456;2024-03-23T06:59:00;19.6;;;10.3;;
37365;SDS011;23239;51.504;7.456;2024-03-23T07:00:00;19.6;;;10.3;;